sensor_id;sensor_type;location;lat;lon;timestamp;pressure;altitude;pressure_sealevel;temperature;humidity
56400;BME280;42298;53.638;9.876;2024-03-08T00:01:09;103290.47;;;2.92;100.00
56400;BME280;42298;53.638;9.876;2024-03-08T00:03:35;103283.69;;;2.84;100.00
56400;BME280;42298;53.638;9.876;2024-03-08T00:06:00;103286.66;;;2.74;100.00
56400;BME280;42298;53.638;9.876;2024-03-08T00:08:25;103278.06;;;2.68;100.00
56400;BME280;42298;53.638;9.876;2024-03-08T00:10:51;103289.31;;;2.72;100.00
56400;BME280;42298;53.638;9.876;2024-03-08T00:13:16;103283.50;;;2.62;100.00
56400;BME280;42298;53.638;9.876;2024-03-08T00:15:42;103277.28;;;2.65;100.00
56400;BME280;42298;53.638;9.876;2024-03-08T00:18:07;103295.69;;;2.65;100.00
56400;BME280;42298;53.638;9.876;2024-03-08T00:20:32;103286.16;;;2.61;100.00
56400;BME280;42298;53.638;9.876;2024-03-08T00:22:58;103286.38;;;2.55;100.00
56400;BME280;42298;53.638;9.876;2024-03-08T00:25:23;103281.38;;;2.45;100.00
56400;BME280;42298;53.638;9.876;2024-03-08T00:27:49;103293.63;;;2.46;100.00
56400;BME280;42298;53.638;9.876;2024-03-08T00:30:21;103291.69;;;2.53;100.00
56400;BME280;42298;53.638;9.876;2024-03-08T00:32:48;103297.75;;;2.55;100.00
56400;BME280;42298;53.638;9.876;2024-03-08T00:35:14;103297.69;;;2.57;100.00
56400;BME280;42298;53.638;9.876;2024-03-08T00:37:39;103287.25;;;2.54;100.00
56400;BME280;42298;53.638;9.876;2024-03-08T00:40:05;103292.56;;;2.52;100.00
56400;BME280;42298;53.638;9.876;2024-03-08T00:42:32;103283.19;;;2.43;100.00
56400;BME280;42298;53.638;9.876;2024-03-08T00:44:58;103278.97;;;2.38;100.00
56400;BME280;42298;53.638;9.876;2024-03-08T00:47:23;103275.53;;;2.36;100.00
56400;BME280;42298;53.638;9.876;2024-03-08T00:49:49;103286.84;;;2.39;100.00
56400;BME280;42298;53.638;9.876;2024-03-08T00:52:14;103280.53;;;2.43;100.00
56400;BME280;42298;53.638;9.876;2024-03-08T00:54:39;103293.59;;;2.48;100.00
56400;BME280;42298;53.638;9.876;2024-03-08T00:57:05;103297.97;;;2.47;100.00
56400;BME280;42298;53.638;9.876;2024-03-08T00:59:31;103290.03;;;2.49;100.00
56400;BME280;42298;53.638;9.876;2024-03-08T01:01:58;103294.06;;;2.61;100.00
56400;BME280;42298;53.638;9.876;2024-03-08T01:04:24;103284.28;;;2.66;100.00
56400;BME280;42298;53.638;9.876;2024-03-08T01:06:51;103280.72;;;2.67;100.00
56400;BME280;42298;53.638;9.876;2024-03-08T01:09:16;103285.97;;;2.67;100.00
56400;BME280;42298;53.638;9.876;2024-03-08T01:11:42;103267.53;;;2.68;100.00
56400;BME280;42298;53.638;9.876;2024-03-08T01:14:08;103256.16;;;2.68;100.00
56400;BME280;42298;53.638;9.876;2024-03-08T01:16:33;103245.69;;;2.65;100.00
56400;BME280;42298;53.638;9.876;2024-03-08T01:18:58;103242.25;;;2.63;100.00
56400;BME280;42298;53.638;9.876;2024-03-08T01:21:24;103227.72;;;2.51;100.00
56400;BME280;42298;53.638;9.876;2024-03-08T01:23:49;103202.72;;;2.36;100.00
56400;BME280;42298;53.638;9.876;2024-03-08T01:26:14;103194.13;;;2.31;100.00
56400;BME280;42298;53.638;9.876;2024-03-08T01:28:40;103182.94;;;2.24;100.00
56400;BME280;42298;53.638;9.876;2024-03-08T01:31:05;103165.78;;;2.13;100.00
56400;BME280;42298;53.638;9.876;2024-03-08T01:33:31;103162.25;;;2.12;100.00
56400;BME280;42298;53.638;9.876;2024-03-08T01:35:58;103159.59;;;2.14;100.00
56400;BME280;42298;53.638;9.876;2024-03-08T01:38:23;103144.81;;;2.10;100.00
56400;BME280;42298;53.638;9.876;2024-03-08T01:40:49;103138.59;;;2.12;100.00
56400;BME280;42298;53.638;9.876;2024-03-08T01:43:28;103136.09;;;2.09;100.00
56400;BME280;42298;53.638;9.876;2024-03-08T01:45:55;103124.78;;;2.05;100.00
56400;BME280;42298;53.638;9.876;2024-03-08T01:48:21;103115.34;;;2.00;100.00
56400;BME280;42298;53.638;9.876;2024-03-08T01:50:50;103110.81;;;2.03;100.00
56400;BME280;42298;53.638;9.876;2024-03-08T01:53:17;103111.72;;;2.04;100.00
56400;BME280;42298;53.638;9.876;2024-03-08T01:55:44;103107.31;;;2.04;100.00
56400;BME280;42298;53.638;9.876;2024-03-08T01:58:12;103107.19;;;2.07;100.00
56400;BME280;42298;53.638;9.876;2024-03-08T02:00:40;103101.13;;;2.05;100.00
56400;BME280;42298;53.638;9.876;2024-03-08T02:03:07;103088.19;;;1.99;100.00
56400;BME280;42298;53.638;9.876;2024-03-08T02:05:32;103085.50;;;2.01;100.00
56400;BME280;42298;53.638;9.876;2024-03-08T02:07:58;103086.47;;;1.98;100.00
56400;BME280;42298;53.638;9.876;2024-03-08T02:10:23;103081.25;;;1.97;100.00
56400;BME280;42298;53.638;9.876;2024-03-08T02:12:48;103074.41;;;1.91;100.00
56400;BME280;42298;53.638;9.876;2024-03-08T02:15:14;103067.53;;;1.87;100.00
56400;BME280;42298;53.638;9.876;2024-03-08T02:17:40;103067.81;;;1.78;100.00
56400;BME280;42298;53.638;9.876;2024-03-08T02:20:05;103067.81;;;1.78;100.00
56400;BME280;42298;53.638;9.876;2024-03-08T02:22:31;103064.34;;;1.77;100.00
56400;BME280;42298;53.638;9.876;2024-03-08T02:24:59;103070.34;;;1.81;100.00
56400;BME280;42298;53.638;9.876;2024-03-08T02:27:27;103081.66;;;1.83;100.00
56400;BME280;42298;53.638;9.876;2024-03-08T02:29:56;103072.09;;;1.82;100.00
56400;BME280;42298;53.638;9.876;2024-03-08T02:32:22;103074.88;;;1.76;100.00
56400;BME280;42298;53.638;9.876;2024-03-08T02:34:48;103072.44;;;1.70;100.00
56400;BME280;42298;53.638;9.876;2024-03-08T02:37:14;103067.28;;;1.67;100.00
56400;BME280;42298;53.638;9.876;2024-03-08T02:39:40;103084.75;;;1.68;100.00
56400;BME280;42298;53.638;9.876;2024-03-08T02:42:05;103089.19;;;1.65;100.00
56400;BME280;42298;53.638;9.876;2024-03-08T02:44:31;103074.63;;;1.55;100.00
56400;BME280;42298;53.638;9.876;2024-03-08T02:46:57;103084.13;;;1.59;100.00
56400;BME280;42298;53.638;9.876;2024-03-08T02:49:22;103085.03;;;1.58;100.00
56400;BME280;42298;53.638;9.876;2024-03-08T02:51:47;103092.75;;;1.64;100.00
56400;BME280;42298;53.638;9.876;2024-03-08T02:54:13;103092.81;;;1.61;100.00
56400;BME280;42298;53.638;9.876;2024-03-08T02:56:38;103098.03;;;1.63;100.00
56400;BME280;42298;53.638;9.876;2024-03-08T02:59:03;103094.59;;;1.61;100.00
56400;BME280;42298;53.638;9.876;2024-03-08T03:01:28;103102.56;;;1.58;100.00
56400;BME280;42298;53.638;9.876;2024-03-08T03:03:54;103105.28;;;1.55;100.00
56400;BME280;42298;53.638;9.876;2024-03-08T03:06:19;103100.16;;;1.50;100.00
56400;BME280;42298;53.638;9.876;2024-03-08T03:08:46;103113.28;;;1.50;100.00
56400;BME280;42298;53.638;9.876;2024-03-08T03:11:12;103108.91;;;1.51;100.00
56400;BME280;42298;53.638;9.876;2024-03-08T03:13:39;103112.41;;;1.51;100.00
56400;BME280;42298;53.638;9.876;2024-03-08T03:16:04;103116.78;;;1.51;100.00
56400;BME280;42298;53.638;9.876;2024-03-08T03:18:29;103123.66;;;1.55;100.00
56400;BME280;42298;53.638;9.876;2024-03-08T03:20:55;103114.19;;;1.49;100.00
56400;BME280;42298;53.638;9.876;2024-03-08T03:23:21;103117.91;;;1.42;100.00
56400;BME280;42298;53.638;9.876;2024-03-08T03:25:46;103117.13;;;1.38;100.00
56400;BME280;42298;53.638;9.876;2024-03-08T03:28:12;103125.97;;;1.36;100.00
56400;BME280;42298;53.638;9.876;2024-03-08T03:30:44;103134.72;;;1.35;100.00
56400;BME280;42298;53.638;9.876;2024-03-08T03:33:09;103133.88;;;1.34;100.00
56400;BME280;42298;53.638;9.876;2024-03-08T03:35:35;103133.84;;;1.36;100.00
56400;BME280;42298;53.638;9.876;2024-03-08T03:38:01;103137.41;;;1.33;100.00
56400;BME280;42298;53.638;9.876;2024-03-08T03:40:31;103134.00;;;1.30;100.00
56400;BME280;42298;53.638;9.876;2024-03-08T03:42:57;103139.34;;;1.27;100.00
56400;BME280;42298;53.638;9.876;2024-03-08T03:45:25;103140.19;;;1.27;100.00
56400;BME280;42298;53.638;9.876;2024-03-08T03:47:51;103148.97;;;1.26;100.00
56400;BME280;42298;53.638;9.876;2024-03-08T03:50:20;103149.06;;;1.23;100.00
56400;BME280;42298;53.638;9.876;2024-03-08T03:52:46;103148.25;;;1.21;100.00
56400;BME280;42298;53.638;9.876;2024-03-08T03:55:12;103157.88;;;1.20;100.00
56400;BME280;42298;53.638;9.876;2024-03-08T03:57:38;103156.13;;;1.19;100.00
56400;BME280;42298;53.638;9.876;2024-03-08T04:00:04;103160.47;;;1.22;100.00
56400;BME280;42298;53.638;9.876;2024-03-08T04:02:30;103163.88;;;1.26;100.00
56400;BME280;42298;53.638;9.876;2024-03-08T04:04:55;103170.88;;;1.25;100.00
56400;BME280;42298;53.638;9.876;2024-03-08T04:07:20;103175.34;;;1.21;100.00
56400;BME280;42298;53.638;9.876;2024-03-08T04:09:46;103165.84;;;1.17;100.00
56400;BME280;42298;53.638;9.876;2024-03-08T04:12:11;103183.22;;;1.21;100.00
56400;BME280;42298;53.638;9.876;2024-03-08T04:14:40;103176.41;;;1.14;100.00
56400;BME280;42298;53.638;9.876;2024-03-08T04:17:06;103181.66;;;1.14;100.00
56400;BME280;42298;53.638;9.876;2024-03-08T04:19:33;103176.50;;;1.11;100.00
56400;BME280;42298;53.638;9.876;2024-03-08T04:21:59;103180.69;;;1.18;100.00
56400;BME280;42298;53.638;9.876;2024-03-08T04:24:26;103172.03;;;1.15;100.00
56400;BME280;42298;53.638;9.876;2024-03-08T04:26:51;103175.69;;;1.09;100.00
56400;BME280;42298;53.638;9.876;2024-03-08T04:29:16;103176.69;;;1.03;100.00
56400;BME280;42298;53.638;9.876;2024-03-08T04:31:42;103174.13;;;1.02;100.00
56400;BME280;42298;53.638;9.876;2024-03-08T04:34:07;103172.34;;;1.02;100.00
56400;BME280;42298;53.638;9.876;2024-03-08T04:36:33;103161.16;;;0.96;100.00
56400;BME280;42298;53.638;9.876;2024-03-08T04:38:59;103171.66;;;0.96;100.00
56400;BME280;42298;53.638;9.876;2024-03-08T04:41:25;103168.25;;;0.91;100.00
56400;BME280;42298;53.638;9.876;2024-03-08T04:43:50;103165.63;;;0.91;100.00
56400;BME280;42298;53.638;9.876;2024-03-08T04:46:15;103161.44;;;0.83;100.00
56400;BME280;42298;53.638;9.876;2024-03-08T04:48:41;103174.44;;;0.88;100.00
56400;BME280;42298;53.638;9.876;2024-03-08T04:51:08;103181.34;;;0.92;100.00
56400;BME280;42298;53.638;9.876;2024-03-08T04:53:34;103192.59;;;0.97;100.00
56400;BME280;42298;53.638;9.876;2024-03-08T04:56:00;103195.06;;;1.03;100.00
56400;BME280;42298;53.638;9.876;2024-03-08T04:58:25;103190.78;;;0.99;100.00
56400;BME280;42298;53.638;9.876;2024-03-08T05:00:50;103178.84;;;0.88;100.00
56400;BME280;42298;53.638;9.876;2024-03-08T05:03:15;103183.34;;;0.82;100.00
56400;BME280;42298;53.638;9.876;2024-03-08T05:05:41;103180.63;;;0.86;100.00
56400;BME280;42298;53.638;9.876;2024-03-08T05:08:06;103189.47;;;0.81;100.00
56400;BME280;42298;53.638;9.876;2024-03-08T05:10:32;103191.47;;;0.73;100.00
56400;BME280;42298;53.638;9.876;2024-03-08T05:12:57;103181.09;;;0.67;100.00
56400;BME280;42298;53.638;9.876;2024-03-08T05:15:23;103197.69;;;0.68;100.00
56400;BME280;42298;53.638;9.876;2024-03-08T05:17:48;103196.97;;;0.63;100.00
56400;BME280;42298;53.638;9.876;2024-03-08T05:20:13;103195.03;;;0.69;100.00
56400;BME280;42298;53.638;9.876;2024-03-08T05:22:39;103207.19;;;0.73;100.00
56400;BME280;42298;53.638;9.876;2024-03-08T05:25:05;103207.19;;;0.73;100.00
56400;BME280;42298;53.638;9.876;2024-03-08T05:27:33;103208.16;;;0.69;100.00
56400;BME280;42298;53.638;9.876;2024-03-08T05:29:59;103220.31;;;0.73;100.00
56400;BME280;42298;53.638;9.876;2024-03-08T05:32:24;103222.81;;;0.78;100.00
56400;BME280;42298;53.638;9.876;2024-03-08T05:34:50;103225.44;;;0.78;100.00
56400;BME280;42298;53.638;9.876;2024-03-08T05:37:15;103220.13;;;0.81;100.00
56400;BME280;42298;53.638;9.876;2024-03-08T05:39:41;103222.72;;;0.82;100.00
56400;BME280;42298;53.638;9.876;2024-03-08T05:42:06;103221.78;;;0.83;100.00
56400;BME280;42298;53.638;9.876;2024-03-08T05:44:33;103224.38;;;0.87;100.00
56400;BME280;42298;53.638;9.876;2024-03-08T05:46:59;103226.94;;;0.88;100.00
56400;BME280;42298;53.638;9.876;2024-03-08T05:49:24;103220.84;;;0.88;100.00
56400;BME280;42298;53.638;9.876;2024-03-08T05:51:50;103220.84;;;0.86;100.00
56400;BME280;42298;53.638;9.876;2024-03-08T05:54:16;103205.31;;;0.78;100.00
56400;BME280;42298;53.638;9.876;2024-03-08T05:56:41;103210.66;;;0.75;100.00
56400;BME280;42298;53.638;9.876;2024-03-08T05:59:08;103208.91;;;0.74;100.00
56400;BME280;42298;53.638;9.876;2024-03-08T06:01:34;103202.84;;;0.71;100.00
56400;BME280;42298;53.638;9.876;2024-03-08T06:04:02;103208.06;;;0.74;100.00
56400;BME280;42298;53.638;9.876;2024-03-08T06:06:27;103202.00;;;0.70;100.00
56400;BME280;42298;53.638;9.876;2024-03-08T06:08:53;103199.44;;;0.69;100.00
56400;BME280;42298;53.638;9.876;2024-03-08T06:11:21;103214.13;;;0.76;100.00
56400;BME280;42298;53.638;9.876;2024-03-08T06:13:47;103208.03;;;0.75;100.00
56400;BME280;42298;53.638;9.876;2024-03-08T06:16:12;103205.31;;;0.78;100.00
56400;BME280;42298;53.638;9.876;2024-03-08T06:18:38;103201.72;;;0.82;100.00
56400;BME280;42298;53.638;9.876;2024-03-08T06:21:04;103207.00;;;0.81;100.00
56400;BME280;42298;53.638;9.876;2024-03-08T06:23:34;103198.31;;;0.77;100.00
56400;BME280;42298;53.638;9.876;2024-03-08T06:26:06;103192.28;;;0.75;100.00
56400;BME280;42298;53.638;9.876;2024-03-08T06:28:32;103208.50;;;0.91;100.00
56400;BME280;42298;53.638;9.876;2024-03-08T06:31:01;103208.34;;;0.97;100.00
56400;BME280;42298;53.638;9.876;2024-03-08T06:33:27;103209.09;;;1.02;100.00
56400;BME280;42298;53.638;9.876;2024-03-08T06:35:53;103215.34;;;0.97;100.00
56400;BME280;42298;53.638;9.876;2024-03-08T06:38:19;103217.00;;;1.01;100.00
56400;BME280;42298;53.638;9.876;2024-03-08T06:40:45;103209.88;;;1.06;100.00
56400;BME280;42298;53.638;9.876;2024-03-08T06:43:13;103207.47;;;0.97;100.00
56400;BME280;42298;53.638;9.876;2024-03-08T06:45:42;103206.50;;;1.01;100.00
56400;BME280;42298;53.638;9.876;2024-03-08T06:48:07;103209.81;;;1.09;100.00
56400;BME280;42298;53.638;9.876;2024-03-08T06:50:35;103217.34;;;1.21;100.00
56400;BME280;42298;53.638;9.876;2024-03-08T06:53:01;103208.78;;;1.15;100.00
56400;BME280;42298;53.638;9.876;2024-03-08T06:55:28;103207.84;;;1.17;100.00
56400;BME280;42298;53.638;9.876;2024-03-08T06:57:54;103209.47;;;1.21;100.00
56400;BME280;42298;53.638;9.876;2024-03-08T07:00:19;103201.69;;;1.18;100.00
56400;BME280;42298;53.638;9.876;2024-03-08T07:02:46;103208.56;;;1.24;100.00
56400;BME280;42298;53.638;9.876;2024-03-08T07:05:11;103216.06;;;1.38;100.00
56400;BME280;42298;53.638;9.876;2024-03-08T07:07:37;103229.81;;;1.48;100.00
56400;BME280;42298;53.638;9.876;2024-03-08T07:10:03;103222.03;;;1.44;100.00
56400;BME280;42298;53.638;9.876;2024-03-08T07:12:29;103217.63;;;1.45;100.00
56400;BME280;42298;53.638;9.876;2024-03-08T07:14:55;103210.56;;;1.47;100.00
56400;BME280;42298;53.638;9.876;2024-03-08T07:17:20;103220.84;;;1.55;100.00
56400;BME280;42298;53.638;9.876;2024-03-08T07:19:49;103229.81;;;1.79;100.00
56400;BME280;42298;53.638;9.876;2024-03-08T07:24:53;103204.75;;;1.67;100.00
56400;BME280;42298;53.638;9.876;2024-03-08T07:27:30;103191.53;;;1.70;100.00
56400;BME280;42298;53.638;9.876;2024-03-08T07:29:55;103196.59;;;1.78;100.00
56400;BME280;42298;53.638;9.876;2024-03-08T07:32:21;103190.34;;;1.82;100.00
56400;BME280;42298;53.638;9.876;2024-03-08T07:34:49;103185.94;;;1.82;100.00
56400;BME280;42298;53.638;9.876;2024-03-08T07:37:16;103180.41;;;1.92;100.00
56400;BME280;42298;53.638;9.876;2024-03-08T07:39:41;103176.63;;;2.02;100.00
56400;BME280;42298;53.638;9.876;2024-03-08T07:42:07;103168.66;;;2.03;100.00
56400;BME280;42298;53.638;9.876;2024-03-08T07:44:32;103162.47;;;2.06;100.00
56400;BME280;42298;53.638;9.876;2024-03-08T07:46:59;103150.91;;;2.12;100.00
56400;BME280;42298;53.638;9.876;2024-03-08T07:49:24;103156.66;;;2.24;100.00
56400;BME280;42298;53.638;9.876;2024-03-08T07:51:50;103153.88;;;2.29;100.00
56400;BME280;42298;53.638;9.876;2024-03-08T07:54:15;103148.34;;;2.37;100.00
56400;BME280;42298;53.638;9.876;2024-03-08T07:56:41;103130.88;;;2.36;100.00
56400;BME280;42298;53.638;9.876;2024-03-08T07:59:07;103141.56;;;2.58;100.00
56400;BME280;42298;53.638;9.876;2024-03-08T08:01:32;103126.47;;;2.63;100.00
56400;BME280;42298;53.638;9.876;2024-03-08T08:03:59;103118.25;;;2.72;100.00
56400;BME280;42298;53.638;9.876;2024-03-08T08:06:24;103108.50;;;2.76;100.00
56400;BME280;42298;53.638;9.876;2024-03-08T08:08:50;103081.41;;;2.72;100.00
56400;BME280;42298;53.638;9.876;2024-03-08T08:11:16;103059.78;;;2.64;100.00
56400;BME280;42298;53.638;9.876;2024-03-08T08:13:41;103044.41;;;2.77;100.00
56400;BME280;42298;53.638;9.876;2024-03-08T08:16:11;103022.41;;;2.79;100.00
56400;BME280;42298;53.638;9.876;2024-03-08T08:18:38;103014.41;;;2.82;100.00
56400;BME280;42298;53.638;9.876;2024-03-08T08:21:04;103004.13;;;3.00;100.00
56400;BME280;42298;53.638;9.876;2024-03-08T08:23:31;102990.66;;;3.07;100.00
56400;BME280;42298;53.638;9.876;2024-03-08T08:25:57;102974.59;;;3.15;100.00
56400;BME280;42298;53.638;9.876;2024-03-08T08:28:22;102949.31;;;3.09;100.00
56400;BME280;42298;53.638;9.876;2024-03-08T08:30:48;102939.41;;;3.16;100.00
56400;BME280;42298;53.638;9.876;2024-03-08T08:33:14;102934.31;;;3.35;100.00
56400;BME280;42298;53.638;9.876;2024-03-08T08:35:40;102933.94;;;3.44;100.00
56400;BME280;42298;53.638;9.876;2024-03-08T08:38:05;102910.97;;;3.48;100.00
56400;BME280;42298;53.638;9.876;2024-03-08T08:40:32;102898.31;;;3.56;100.00
56400;BME280;42298;53.638;9.876;2024-03-08T08:42:58;102894.47;;;3.65;100.00
56400;BME280;42298;53.638;9.876;2024-03-08T08:45:24;102884.41;;;3.75;100.00
56400;BME280;42298;53.638;9.876;2024-03-08T08:47:49;102863.13;;;3.79;100.00
56400;BME280;42298;53.638;9.876;2024-03-08T08:50:15;102851.25;;;3.89;100.00
56400;BME280;42298;53.638;9.876;2024-03-08T08:52:41;102842.81;;;4.02;100.00
56400;BME280;42298;53.638;9.876;2024-03-08T08:55:10;102821.31;;;4.11;100.00
56400;BME280;42298;53.638;9.876;2024-03-08T08:57:40;102812.41;;;4.13;100.00
56400;BME280;42298;53.638;9.876;2024-03-08T09:00:05;102799.94;;;4.17;100.00
56400;BME280;42298;53.638;9.876;2024-03-08T09:02:33;102789.84;;;4.27;100.00
56400;BME280;42298;53.638;9.876;2024-03-08T09:04:59;102769.19;;;4.37;100.00
56400;BME280;42298;53.638;9.876;2024-03-08T09:07:26;102766.06;;;4.47;100.00
56400;BME280;42298;53.638;9.876;2024-03-08T09:09:51;102748.44;;;4.48;100.00
56400;BME280;42298;53.638;9.876;2024-03-08T09:12:21;102732.09;;;4.40;100.00
56400;BME280;42298;53.638;9.876;2024-03-08T09:14:47;102725.53;;;4.48;100.00
56400;BME280;42298;53.638;9.876;2024-03-08T09:17:13;102721.38;;;4.62;100.00
56400;BME280;42298;53.638;9.876;2024-03-08T09:19:42;102699.69;;;4.55;100.00
56400;BME280;42298;53.638;9.876;2024-03-08T09:22:07;102693.28;;;4.61;100.00
56400;BME280;42298;53.638;9.876;2024-03-08T09:24:33;102677.00;;;4.70;100.00
56400;BME280;42298;53.638;9.876;2024-03-08T09:26:58;102680.34;;;4.91;100.00
56400;BME280;42298;53.638;9.876;2024-03-08T09:29:24;102661.78;;;4.92;100.00
56400;BME280;42298;53.638;9.876;2024-03-08T09:31:49;102656.22;;;4.98;100.00
56400;BME280;42298;53.638;9.876;2024-03-08T09:34:14;102658.97;;;4.95;100.00
56400;BME280;42298;53.638;9.876;2024-03-08T09:36:40;102636.63;;;5.03;100.00
56400;BME280;42298;53.638;9.876;2024-03-08T09:39:06;102634.91;;;5.02;100.00
56400;BME280;42298;53.638;9.876;2024-03-08T09:41:32;102627.94;;;5.01;100.00
56400;BME280;42298;53.638;9.876;2024-03-08T09:43:59;102620.69;;;5.04;100.00
56400;BME280;42298;53.638;9.876;2024-03-08T09:46:25;102623.72;;;5.14;100.00
56400;BME280;42298;53.638;9.876;2024-03-08T09:48:52;102606.47;;;5.07;100.00
56400;BME280;42298;53.638;9.876;2024-03-08T09:51:17;102613.94;;;5.16;100.00
56400;BME280;42298;53.638;9.876;2024-03-08T09:53:44;102607.75;;;5.33;100.00
56400;BME280;42298;53.638;9.876;2024-03-08T09:56:10;102603.69;;;5.43;100.00
56400;BME280;42298;53.638;9.876;2024-03-08T09:58:36;102600.47;;;5.54;100.00
56400;BME280;42298;53.638;9.876;2024-03-08T10:01:13;102588.44;;;5.48;100.00
56400;BME280;42298;53.638;9.876;2024-03-08T10:03:38;102577.28;;;5.43;100.00
56400;BME280;42298;53.638;9.876;2024-03-08T10:06:06;102564.72;;;5.47;100.00
56400;BME280;42298;53.638;9.876;2024-03-08T10:08:31;102565.38;;;5.68;100.00
56400;BME280;42298;53.638;9.876;2024-03-08T10:10:57;102558.13;;;5.71;100.00
56400;BME280;42298;53.638;9.876;2024-03-08T10:13:25;102545.06;;;5.68;100.00
56400;BME280;42298;53.638;9.876;2024-03-08T10:15:53;102548.47;;;5.70;100.00
56400;BME280;42298;53.638;9.876;2024-03-08T10:18:18;102552.72;;;5.89;100.00
56400;BME280;42298;53.638;9.876;2024-03-08T10:20:43;102540.28;;;5.91;100.00
56400;BME280;42298;53.638;9.876;2024-03-08T10:23:09;102537.81;;;5.88;100.00
56400;BME280;42298;53.638;9.876;2024-03-08T10:25:35;102531.41;;;5.92;100.00
56400;BME280;42298;53.638;9.876;2024-03-08T10:28:04;102529.63;;;5.92;100.00
56400;BME280;42298;53.638;9.876;2024-03-08T10:30:30;102529.63;;;5.92;100.00
56400;BME280;42298;53.638;9.876;2024-03-08T10:32:55;102520.41;;;5.99;100.00
56400;BME280;42298;53.638;9.876;2024-03-08T10:35:21;102534.00;;;6.09;100.00
56400;BME280;42298;53.638;9.876;2024-03-08T10:37:49;102531.59;;;6.20;100.00
56400;BME280;42298;53.638;9.876;2024-03-08T10:40:19;102538.03;;;6.31;100.00
56400;BME280;42298;53.638;9.876;2024-03-08T10:42:56;102522.00;;;6.34;100.00
56400;BME280;42298;53.638;9.876;2024-03-08T10:47:59;102509.78;;;6.31;100.00
56400;BME280;42298;53.638;9.876;2024-03-08T10:50:28;102518.22;;;6.38;100.00
56400;BME280;42298;53.638;9.876;2024-03-08T10:52:57;102508.22;;;6.43;100.00
56400;BME280;42298;53.638;9.876;2024-03-08T10:55:23;102511.25;;;6.51;100.00
56400;BME280;42298;53.638;9.876;2024-03-08T10:57:51;102517.63;;;6.63;100.00
56400;BME280;42298;53.638;9.876;2024-03-08T11:00:18;102510.16;;;6.70;100.00
56400;BME280;42298;53.638;9.876;2024-03-08T11:02:51;102510.25;;;6.68;100.00
56400;BME280;42298;53.638;9.876;2024-03-08T11:05:37;102513.00;;;6.81;100.00
56400;BME280;42298;53.638;9.876;2024-03-08T11:08:14;102507.16;;;6.76;100.00
56400;BME280;42298;53.638;9.876;2024-03-08T11:10:52;102500.88;;;6.77;100.00
56400;BME280;42298;53.638;9.876;2024-03-08T11:13:35;102503.53;;;6.77;100.00
56400;BME280;42298;53.638;9.876;2024-03-08T11:16:11;102487.09;;;6.86;100.00
56400;BME280;42298;53.638;9.876;2024-03-08T11:18:37;102477.91;;;6.77;100.00
56400;BME280;42298;53.638;9.876;2024-03-08T11:21:08;102473.38;;;6.65;100.00
56400;BME280;42298;53.638;9.876;2024-03-08T11:23:37;102476.88;;;6.80;100.00
56400;BME280;42298;53.638;9.876;2024-03-08T11:26:03;102479.31;;;6.97;100.00
56400;BME280;42298;53.638;9.876;2024-03-08T11:28:32;102464.75;;;6.90;100.00
56400;BME280;42298;53.638;9.876;2024-03-08T11:33:30;102479.91;;;7.02;100.00
56400;BME280;42298;53.638;9.876;2024-03-08T11:36:23;102475.75;;;6.98;100.00
56400;BME280;42298;53.638;9.876;2024-03-08T11:38:50;102468.47;;;7.02;100.00
56400;BME280;42298;53.638;9.876;2024-03-08T11:41:21;102471.19;;;7.15;100.00
56400;BME280;42298;53.638;9.876;2024-03-08T11:43:47;102467.78;;;7.13;100.00
56400;BME280;42298;53.638;9.876;2024-03-08T11:46:14;102461.25;;;7.18;100.00
56400;BME280;42298;53.638;9.876;2024-03-08T11:48:44;102449.88;;;7.31;100.00
56400;BME280;42298;53.638;9.876;2024-03-08T11:51:13;102457.94;;;7.29;100.00
56400;BME280;42298;53.638;9.876;2024-03-08T11:53:40;102445.44;;;7.31;100.00
56400;BME280;42298;53.638;9.876;2024-03-08T11:56:10;102451.38;;;7.35;100.00
56400;BME280;42298;53.638;9.876;2024-03-08T11:58:37;102451.53;;;7.46;100.00
56400;BME280;42298;53.638;9.876;2024-03-08T12:01:07;102437.63;;;7.42;100.00
56400;BME280;42298;53.638;9.876;2024-03-08T12:03:34;102443.69;;;7.44;100.00
56400;BME280;42298;53.638;9.876;2024-03-08T12:06:00;102446.06;;;7.49;100.00
56400;BME280;42298;53.638;9.876;2024-03-08T12:08:27;102437.25;;;7.49;100.00
56400;BME280;42298;53.638;9.876;2024-03-08T12:10:53;102423.03;;;7.50;100.00
56400;BME280;42298;53.638;9.876;2024-03-08T12:13:25;102413.63;;;7.58;100.00
56400;BME280;42298;53.638;9.876;2024-03-08T12:15:55;102411.03;;;7.71;100.00
56400;BME280;42298;53.638;9.876;2024-03-08T12:18:20;102390.00;;;7.68;100.00
56400;BME280;42298;53.638;9.876;2024-03-08T12:20:45;102378.00;;;7.62;100.00
56400;BME280;42298;53.638;9.876;2024-03-08T12:23:15;102377.38;;;7.72;100.00
56400;BME280;42298;53.638;9.876;2024-03-08T12:25:41;102366.56;;;7.62;100.00
56400;BME280;42298;53.638;9.876;2024-03-08T12:28:11;102362.94;;;7.63;100.00
56400;BME280;42298;53.638;9.876;2024-03-08T12:30:49;102353.44;;;7.73;100.00
56400;BME280;42298;53.638;9.876;2024-03-08T12:33:17;102339.31;;;7.73;100.00
56400;BME280;42298;53.638;9.876;2024-03-08T12:35:51;102331.50;;;7.84;100.00
56400;BME280;42298;53.638;9.876;2024-03-08T12:38:19;102327.56;;;7.90;100.00
56400;BME280;42298;53.638;9.876;2024-03-08T12:40:49;102320.78;;;8.11;100.00
56400;BME280;42298;53.638;9.876;2024-03-08T12:43:14;102298.06;;;7.94;100.00
56400;BME280;42298;53.638;9.876;2024-03-08T12:45:40;102297.13;;;7.95;100.00
56400;BME280;42298;53.638;9.876;2024-03-08T12:48:12;102281.63;;;7.89;100.00
56400;BME280;42298;53.638;9.876;2024-03-08T12:50:40;102280.22;;;7.96;100.00
56400;BME280;42298;53.638;9.876;2024-03-08T12:53:05;102260.38;;;7.89;100.00
56400;BME280;42298;53.638;9.876;2024-03-08T12:55:31;102252.94;;;7.81;100.00